createdAt,value
2018-03-20T00:00:22.449Z,69.98
2018-03-20T00:01:22.593Z,70.07
2018-03-20T00:02:22.732Z,70.20
2018-03-20T00:03:22.880Z,70.20
2018-03-20T00:04:23.019Z,69.73
2018-03-20T00:05:23.163Z,70.11
2018-03-20T00:06:23.309Z,69.70
2018-03-20T00:07:23.451Z,70.20
2018-03-20T00:08:23.595Z,69.83
2018-03-20T00:09:23.743Z,70.07
2018-03-20T00:10:23.884Z,69.70
2018-03-20T00:13:24.298Z,70.26
2018-03-20T00:14:24.440Z,69.70
2018-03-20T00:16:24.720Z,70.45
2018-03-20T00:17:24.864Z,70.30
2018-03-20T00:18:25.005Z,70.17
2018-03-20T00:19:25.151Z,69.70
2018-03-20T00:20:25.293Z,69.98
2018-03-20T00:21:25.440Z,69.98
2018-03-20T00:22:25.591Z,70.17
2018-03-20T00:23:25.732Z,70.83
2018-03-20T00:24:25.879Z,71.11
2018-03-20T00:25:26.019Z,71.02
2018-03-20T00:26:26.163Z,71.87
2018-03-20T00:28:26.444Z,72.15
2018-03-20T00:29:26.592Z,72.34
2018-03-20T00:30:26.736Z,72.15
2018-03-20T00:31:26.884Z,72.25
2018-03-20T00:32:27.015Z,72.25
2018-03-20T00:33:27.159Z,72.06
2018-03-20T00:34:27.304Z,71.77
2018-03-20T00:35:27.449Z,71.49
2018-03-20T00:36:27.592Z,71.11
2018-03-20T00:37:27.734Z,71.11
2018-03-20T00:38:27.882Z,71.11
2018-03-20T00:39:28.028Z,71.02
2018-03-20T00:40:28.173Z,71.11
2018-03-20T00:41:28.312Z,71.02
2018-03-20T00:42:28.794Z,71.02
2018-03-20T00:43:28.602Z,71.30
2018-03-20T00:44:28.741Z,71.11
2018-03-20T00:45:28.885Z,70.83
2018-03-20T00:46:29.030Z,70.73
2018-03-20T00:47:29.173Z,70.64
2018-03-20T00:48:29.317Z,71.21
2018-03-20T00:49:29.459Z,70.64
2018-03-20T00:50:29.605Z,71.02
2018-03-20T00:51:29.766Z,71.30
2018-03-20T00:52:29.881Z,71.40
2018-03-20T00:53:30.024Z,71.68
2018-03-20T00:54:30.182Z,72.15
2018-03-20T00:55:30.308Z,72.53
2018-03-20T00:56:30.460Z,72.81
2018-03-20T00:58:30.728Z,73.00
2018-03-20T00:59:30.868Z,73.00
2018-03-20T01:00:31.022Z,72.81
2018-03-20T01:01:31.162Z,72.81
2018-03-20T01:02:31.303Z,73.00
2018-03-20T01:03:31.453Z,73.38
2018-03-20T01:04:31.594Z,73.19
2018-03-20T01:05:31.737Z,73.94
2018-03-20T01:06:31.878Z,73.75
2018-03-20T01:07:32.024Z,73.57
2018-03-20T01:08:32.169Z,73.85
2018-03-20T01:09:32.313Z,74.13
2018-03-20T01:10:32.459Z,74.13
2018-03-20T01:11:32.606Z,74.51
2018-03-20T01:12:32.740Z,74.51
2018-03-20T01:13:32.887Z,74.04
2018-03-20T01:14:33.029Z,74.32
2018-03-20T01:15:33.174Z,74.51
2018-03-20T01:16:33.316Z,74.69
2018-03-20T01:17:33.509Z,74.41
2018-03-20T01:18:33.601Z,74.32
2018-03-20T01:19:33.753Z,74.32
2018-03-20T01:20:33.896Z,73.75
2018-03-20T01:21:34.039Z,74.32
2018-03-20T01:22:34.182Z,74.41
2018-03-20T01:23:34.325Z,74.13
2018-03-20T01:24:34.470Z,74.13
2018-03-20T01:25:34.613Z,74.79
2018-03-20T01:26:34.757Z,74.51
2018-03-20T01:27:34.899Z,74.69
2018-03-20T01:28:35.043Z,74.79
2018-03-20T01:29:35.188Z,75.36
2018-03-20T01:30:35.331Z,74.79
2018-03-20T01:31:35.474Z,75.13
2018-03-20T01:32:35.616Z,75.51
2018-03-20T01:33:35.758Z,75.73
2018-03-20T01:34:35.905Z,75.17
2018-03-20T01:35:36.045Z,75.36
2018-03-20T01:36:36.451Z,74.60
2018-03-20T01:37:36.337Z,74.79
2018-03-20T01:38:36.478Z,74.32
2018-03-20T01:39:36.625Z,74.88
2018-03-20T01:40:36.764Z,74.69
2018-03-20T01:41:36.905Z,75.07
2018-03-20T01:42:37.051Z,74.88
2018-03-20T01:43:37.197Z,75.36
2018-03-20T01:44:37.339Z,75.17
2018-03-20T01:45:37.478Z,74.69
2018-03-20T01:46:37.620Z,74.79
2018-03-20T01:47:37.766Z,74.69
2018-03-20T01:48:37.909Z,74.13
2018-03-20T01:49:38.039Z,74.60
2018-03-20T01:50:38.183Z,73.94
2018-03-20T01:51:38.577Z,74.38
2018-03-20T01:52:38.470Z,74.13
2018-03-20T01:53:38.620Z,74.04
2018-03-20T01:54:38.756Z,74.28
2018-03-20T01:55:38.908Z,74.66
2018-03-20T01:56:39.048Z,75.04
2018-03-20T01:57:39.187Z,74.69
2018-03-20T01:58:39.332Z,74.51
2018-03-20T01:59:39.475Z,74.22
2018-03-20T02:00:39.616Z,74.41
2018-03-20T02:01:39.762Z,74.13
2018-03-20T02:02:39.908Z,73.62
2018-03-20T02:03:40.050Z,73.85
2018-03-20T02:04:40.191Z,73.75
2018-03-20T02:05:40.337Z,73.43
2018-03-20T02:06:40.485Z,73.94
2018-03-20T02:07:40.623Z,73.75
2018-03-20T02:08:40.766Z,74.00
2018-03-20T02:09:40.910Z,73.53
2018-03-20T02:10:41.104Z,73.72
2018-03-20T02:11:41.200Z,73.62
2018-03-20T02:12:41.338Z,73.62
2018-03-20T02:13:41.485Z,73.91
2018-03-20T02:14:41.629Z,74.47
2018-03-20T02:15:41.792Z,75.04
2018-03-20T02:16:41.906Z,75.51
2018-03-20T02:17:42.049Z,75.42
2018-03-20T02:19:42.329Z,75.42
2018-03-20T02:20:42.472Z,75.32
2018-03-20T02:21:42.621Z,75.51
2018-03-20T02:22:42.758Z,75.51
2018-03-20T02:23:42.898Z,75.89
2018-03-20T02:24:43.043Z,75.32
2018-03-20T02:25:43.191Z,75.60
2018-03-20T02:26:43.329Z,75.42
2018-03-20T02:27:43.474Z,74.95
2018-03-20T02:28:43.617Z,74.57
2018-03-20T02:29:43.762Z,74.76
2018-03-20T02:30:43.898Z,74.66
2018-03-20T02:31:44.044Z,74.47
2018-03-20T02:32:44.186Z,74.10
2018-03-20T02:33:44.331Z,74.10
2018-03-20T02:34:44.472Z,73.62
2018-03-20T02:35:44.620Z,73.43
2018-03-20T02:36:44.761Z,73.62
2018-03-20T02:37:44.908Z,74.28
2018-03-20T02:38:45.048Z,74.10
2018-03-20T02:39:45.189Z,74.28
2018-03-20T02:40:45.337Z,74.00
2018-03-20T02:41:45.483Z,74.85
2018-03-20T02:42:45.620Z,74.85
2018-03-20T02:43:45.765Z,74.47
2018-03-20T02:44:45.910Z,74.28
2018-03-20T02:45:46.053Z,73.91
2018-03-20T02:46:46.197Z,74.76
2018-03-20T02:47:46.340Z,74.57
2018-03-20T02:48:46.504Z,74.85
2018-03-20T02:49:46.618Z,74.47
2018-03-20T02:50:46.761Z,74.66
2018-03-20T02:51:46.904Z,75.42
2018-03-20T02:52:47.050Z,75.70
2018-03-20T02:53:47.190Z,75.51
2018-03-20T02:54:47.330Z,75.89
2018-03-20T02:55:47.474Z,76.35
2018-03-20T02:56:47.617Z,76.35
2018-03-20T02:57:47.763Z,76.35
2018-03-20T02:58:47.908Z,76.45
2018-03-20T02:59:48.043Z,76.35
2018-03-20T03:00:48.198Z,76.54
2018-03-20T03:01:48.332Z,76.35
2018-03-20T03:02:48.488Z,76.54
2018-03-20T03:04:48.753Z,76.45
2018-03-20T03:05:48.898Z,76.35
2018-03-20T03:06:49.036Z,76.35
2018-03-20T03:07:49.182Z,76.73
2018-03-20T03:08:49.328Z,76.17
2018-03-20T03:09:49.468Z,75.79
2018-03-20T03:10:49.609Z,75.98
2018-03-20T03:11:49.750Z,75.79
2018-03-20T03:12:50.365Z,75.60
2018-03-20T03:13:50.030Z,75.70
2018-03-20T03:14:50.172Z,75.98
2018-03-20T03:16:50.455Z,75.98
2018-03-20T03:17:50.595Z,75.98
2018-03-20T03:18:50.738Z,75.79
2018-03-20T03:19:50.881Z,76.07
2018-03-20T03:20:51.019Z,75.79
2018-03-20T03:21:51.166Z,75.60
2018-03-20T03:22:51.303Z,75.79
2018-03-20T03:23:51.437Z,76.07
2018-03-20T03:24:51.582Z,76.26
2018-03-20T03:25:51.728Z,76.07
2018-03-20T03:26:51.863Z,76.54
2018-03-20T03:27:52.011Z,76.54
2018-03-20T03:28:52.150Z,76.92
2018-03-20T03:29:52.292Z,77.39
2018-03-20T03:30:52.823Z,77.20
2018-03-20T03:31:52.577Z,77.30
2018-03-20T03:32:52.720Z,77.11
2018-03-20T03:33:53.215Z,76.82
2018-03-20T03:34:53.009Z,76.82
2018-03-20T03:35:53.148Z,76.92
2018-03-20T03:36:53.291Z,77.30
2018-03-20T03:37:53.431Z,77.30
2018-03-20T03:38:53.579Z,77.30
2018-03-20T03:39:54.016Z,78.24
2018-03-20T03:40:53.861Z,77.96
2018-03-20T03:41:54.005Z,78.71
2018-03-20T03:42:54.430Z,77.86
2018-03-20T03:43:54.291Z,77.96
2018-03-20T03:44:54.433Z,77.86
2018-03-20T03:45:54.825Z,77.58
2018-03-20T03:46:54.717Z,77.86
2018-03-20T03:47:54.870Z,77.67
2018-03-20T03:48:55.005Z,77.86
2018-03-20T03:49:55.149Z,78.71
2018-03-20T03:50:55.301Z,78.90
2018-03-20T03:51:55.435Z,79.37
2018-03-20T03:52:55.577Z,79.19
2018-03-20T03:53:55.720Z,78.62
2018-03-20T03:54:55.869Z,78.24
2018-03-20T03:55:55.997Z,78.05
2018-03-20T03:56:56.132Z,77.96
2018-03-20T03:57:56.515Z,78.71
2018-03-20T03:58:56.418Z,79.00
2018-03-20T03:59:56.561Z,79.37
2018-03-20T04:00:56.947Z,79.47
2018-03-20T04:01:56.849Z,79.85
2018-03-20T04:02:56.987Z,79.75
2018-03-20T04:03:57.127Z,79.56
2018-03-20T04:04:57.269Z,79.47
2018-03-20T04:05:57.414Z,79.75
2018-03-20T04:06:57.556Z,79.85
2018-03-20T04:07:57.698Z,79.19
2018-03-20T04:08:57.842Z,78.05
2018-03-20T04:09:57.991Z,78.15
2018-03-20T04:10:58.127Z,77.20
2018-03-20T04:11:58.273Z,77.39
2018-03-20T04:12:58.668Z,77.30
2018-03-20T04:13:58.561Z,77.20
2018-03-20T04:14:58.703Z,77.20
2018-03-20T04:15:59.109Z,77.58
2018-03-20T04:16:58.988Z,77.30
2018-03-20T04:17:59.131Z,77.20
2018-03-20T04:18:59.287Z,77.58
2018-03-20T04:19:59.418Z,77.11
2018-03-20T04:20:59.562Z,77.77
2018-03-20T04:21:59.714Z,78.81
2018-03-20T04:22:59.851Z,79.00
2018-03-20T04:23:59.995Z,79.75
2018-03-20T04:25:00.150Z,80.04
2018-03-20T04:26:00.282Z,80.41
2018-03-20T04:27:00.422Z,80.32
2018-03-20T04:28:00.575Z,80.98
2018-03-20T04:29:00.712Z,81.07
2018-03-20T04:30:00.852Z,81.07
2018-03-20T04:31:00.994Z,80.79
2018-03-20T04:32:01.140Z,80.79
2018-03-20T04:33:01.282Z,80.60
2018-03-20T04:34:01.419Z,80.79
2018-03-20T04:35:01.570Z,80.32
2018-03-20T04:36:01.705Z,80.22
2018-03-20T04:37:01.856Z,80.13
2018-03-20T04:38:01.993Z,80.32
2018-03-20T04:39:02.135Z,79.94
2018-03-20T04:40:02.552Z,79.75
2018-03-20T04:41:02.419Z,79.75
2018-03-20T04:42:02.568Z,79.85
2018-03-20T04:43:02.728Z,79.75
2018-03-20T04:44:02.860Z,79.00
2018-03-20T04:45:02.992Z,79.09
2018-03-20T04:46:03.133Z,79.09
2018-03-20T04:47:03.276Z,79.19
2018-03-20T04:48:03.453Z,79.19
2018-03-20T04:49:03.562Z,79.28
2018-03-20T04:50:03.704Z,79.19
2018-03-20T04:51:03.847Z,79.37
2018-03-20T04:52:03.988Z,79.28
2018-03-20T04:53:04.135Z,79.19
2018-03-20T04:54:04.273Z,79.22
2018-03-20T04:55:04.417Z,78.94
2018-03-20T04:56:04.560Z,78.85
2018-03-20T04:57:04.702Z,77.91
2018-03-20T04:58:04.851Z,78.00
2018-03-20T04:59:04.990Z,77.91
2018-03-20T05:00:05.136Z,77.81
2018-03-20T05:01:05.276Z,78.00
2018-03-20T05:02:05.423Z,78.00
2018-03-20T05:03:05.566Z,78.09
2018-03-20T05:04:05.706Z,78.09
2018-03-20T05:05:05.903Z,78.00
2018-03-20T05:06:05.992Z,78.00
2018-03-20T05:07:06.546Z,78.19
2018-03-20T05:08:06.278Z,77.91
2018-03-20T05:09:06.423Z,77.81
2018-03-20T05:10:06.563Z,77.91
2018-03-20T05:11:06.707Z,77.81
2018-03-20T05:12:06.855Z,78.00
2018-03-20T05:13:06.997Z,78.00
2018-03-20T05:14:07.139Z,78.09
2018-03-20T05:15:07.291Z,78.09
2018-03-20T05:16:07.435Z,78.28
2018-03-20T05:17:07.571Z,78.28
2018-03-20T05:18:07.715Z,78.47
2018-03-20T05:19:08.186Z,78.85
2018-03-20T05:20:08.000Z,78.19
2018-03-20T05:21:08.145Z,78.00
2018-03-20T05:22:08.599Z,78.00
2018-03-20T05:23:08.431Z,78.19
2018-03-20T05:24:08.572Z,78.09
2018-03-20T05:25:08.721Z,78.28
2018-03-20T05:26:08.858Z,78.85
2018-03-20T05:27:09.004Z,78.19
2018-03-20T05:28:09.152Z,78.00
2018-03-20T05:29:09.291Z,78.09
2018-03-20T05:30:09.434Z,77.91
2018-03-20T05:31:09.576Z,78.09
2018-03-20T05:32:09.716Z,78.00
2018-03-20T05:33:09.859Z,78.00
2018-03-20T05:34:10.012Z,78.09
2018-03-20T05:35:10.148Z,78.28
2018-03-20T05:36:10.293Z,78.00
2018-03-20T05:37:10.442Z,78.09
2018-03-20T05:38:10.582Z,78.09
2018-03-20T05:39:10.721Z,78.09
2018-03-20T05:40:11.109Z,77.91
2018-03-20T05:41:11.008Z,78.09
2018-03-20T05:42:11.151Z,78.47
2018-03-20T05:43:11.294Z,78.85
2018-03-20T05:44:11.439Z,78.47
2018-03-20T05:45:11.582Z,78.19
2018-03-20T05:46:11.724Z,78.38
2018-03-20T05:47:11.863Z,78.00
2018-03-20T05:48:12.008Z,78.00
2018-03-20T05:49:12.160Z,78.56
2018-03-20T05:50:12.298Z,78.75
2018-03-20T05:51:12.463Z,78.19
2018-03-20T05:52:12.589Z,78.00
2018-03-20T05:53:12.727Z,77.91
2018-03-20T05:54:12.871Z,78.00
2018-03-20T05:55:13.019Z,78.09
2018-03-20T05:56:13.158Z,78.00
2018-03-20T05:57:13.300Z,78.09
2018-03-20T05:58:13.445Z,78.00
2018-03-20T05:59:13.595Z,77.91
2018-03-20T06:00:13.736Z,77.91
2018-03-20T06:01:13.877Z,78.00
2018-03-20T06:02:14.018Z,78.00
2018-03-20T06:03:14.170Z,78.09
2018-03-20T06:04:14.556Z,78.00
2018-03-20T06:05:14.459Z,78.09
2018-03-20T06:06:14.619Z,78.09
2018-03-20T06:07:14.746Z,77.91
2018-03-20T06:08:14.890Z,77.91
2018-03-20T06:09:15.029Z,78.28
2018-03-20T06:10:15.171Z,77.81
2018-03-20T06:11:15.320Z,78.19
2018-03-20T06:12:15.461Z,78.09
2018-03-20T06:13:15.601Z,77.91
2018-03-20T06:14:15.747Z,78.09
2018-03-20T06:15:15.892Z,78.00
2018-03-20T06:16:16.276Z,78.00
2018-03-20T06:17:16.177Z,78.75
2018-03-20T06:18:16.322Z,78.19
2018-03-20T06:19:16.713Z,78.56
2018-03-20T06:20:16.608Z,78.47
2018-03-20T06:21:16.752Z,78.56
2018-03-20T06:22:17.141Z,78.66
2018-03-20T06:23:17.041Z,79.22
2018-03-20T06:24:17.187Z,79.32
2018-03-20T06:25:17.338Z,78.66
2018-03-20T06:26:17.471Z,79.27
2018-03-20T06:27:17.614Z,79.22
2018-03-20T06:28:18.006Z,79.36
2018-03-20T06:29:17.902Z,80.07
2018-03-20T06:30:18.048Z,79.46
2018-03-20T06:31:18.203Z,79.83
2018-03-20T06:32:18.337Z,79.93
2018-03-20T06:33:18.484Z,80.49
2018-03-20T06:34:18.623Z,80.40
2018-03-20T06:35:18.765Z,80.49
2018-03-20T06:36:18.911Z,80.58
2018-03-20T06:37:19.059Z,80.30
2018-03-20T06:38:19.198Z,80.58
2018-03-20T06:39:19.345Z,80.49
2018-03-20T06:40:19.589Z,80.40
2018-03-20T06:41:19.664Z,79.83
2018-03-20T06:42:19.814Z,80.30
2018-03-20T06:43:19.971Z,80.30
2018-03-20T06:44:20.101Z,79.83
2018-03-20T06:45:20.256Z,79.55
2018-03-20T06:46:20.417Z,79.46
2018-03-20T06:47:20.531Z,79.36
2018-03-20T06:48:20.676Z,79.74
2018-03-20T06:49:20.820Z,79.55
2018-03-20T06:50:20.964Z,79.46
2018-03-20T06:51:21.109Z,79.64
2018-03-20T06:52:21.252Z,79.46
2018-03-20T06:53:21.402Z,79.17
2018-03-20T06:54:21.541Z,79.08
2018-03-20T06:55:21.683Z,78.98
2018-03-20T06:56:21.838Z,78.98
2018-03-20T06:57:21.978Z,78.32
2018-03-20T06:58:22.113Z,78.89
2018-03-20T06:59:22.256Z,78.04
2018-03-20T07:00:22.395Z,78.04
2018-03-20T07:01:22.543Z,77.37
2018-03-20T07:02:22.692Z,77.66
2018-03-20T07:03:22.833Z,77.56
2018-03-20T07:04:22.978Z,76.81
2018-03-20T07:05:23.134Z,77.09
2018-03-20T07:06:23.275Z,77.37
2018-03-20T07:07:23.420Z,77.19
2018-03-20T07:08:23.564Z,77.19
2018-03-20T07:09:23.708Z,76.90
2018-03-20T07:10:23.860Z,76.62
2018-03-20T07:11:23.999Z,76.43
2018-03-20T07:12:24.144Z,76.90
2018-03-20T07:13:24.305Z,76.34
2018-03-20T07:14:24.426Z,76.34
2018-03-20T07:15:24.569Z,76.15
2018-03-20T07:16:24.723Z,76.25
2018-03-20T07:17:24.863Z,76.53
2018-03-20T07:18:24.993Z,75.96
2018-03-20T07:19:25.141Z,76.19
2018-03-20T07:20:25.288Z,75.96
2018-03-20T07:21:25.433Z,76.09
2018-03-20T07:22:25.581Z,76.00
2018-03-20T07:23:25.726Z,76.38
2018-03-20T07:24:25.867Z,75.90
2018-03-20T07:25:26.012Z,76.00
2018-03-20T07:26:26.158Z,75.62
2018-03-20T07:27:26.303Z,75.53
2018-03-20T07:28:26.527Z,74.96
2018-03-20T07:29:26.577Z,75.24
2018-03-20T07:30:26.729Z,75.15
2018-03-20T07:31:26.875Z,74.58
2018-03-20T07:32:27.018Z,75.05
2018-03-20T07:33:27.165Z,75.05
2018-03-20T07:34:27.330Z,74.68
2018-03-20T07:35:27.461Z,74.87
2018-03-20T07:36:27.602Z,74.58
2018-03-20T07:37:27.748Z,74.30
2018-03-20T07:38:27.896Z,74.21
2018-03-20T07:39:28.046Z,73.77
2018-03-20T07:40:28.191Z,73.39
2018-03-20T07:41:28.336Z,72.64
2018-03-20T07:42:28.479Z,72.36
2018-03-20T07:43:28.620Z,73.02
2018-03-20T07:44:28.777Z,73.02
2018-03-20T07:45:28.919Z,73.02
2018-03-20T07:46:29.063Z,72.92
2018-03-20T07:47:29.209Z,73.49
2018-03-20T07:48:29.372Z,73.96
2018-03-20T07:49:29.508Z,74.90
2018-03-20T07:50:29.645Z,75.09
2018-03-20T07:51:29.806Z,75.66
2018-03-20T07:52:29.946Z,75.95
2018-03-20T07:53:30.090Z,76.23
2018-03-20T07:54:30.247Z,76.98
2018-03-20T07:55:30.385Z,76.70
2018-03-20T07:56:30.572Z,77.17
2018-03-20T07:57:30.679Z,77.64
2018-03-20T07:58:30.824Z,78.08
2018-03-20T07:59:30.971Z,77.89
2018-03-20T08:00:31.115Z,78.12
2018-03-20T08:01:31.262Z,78.78
2018-03-20T08:02:31.410Z,78.74
2018-03-20T08:03:31.569Z,78.97
2018-03-20T08:04:31.711Z,79.49
2018-03-20T08:05:31.854Z,79.02
2018-03-20T08:06:31.999Z,78.83
2018-03-20T08:07:32.144Z,78.31
2018-03-20T08:08:32.291Z,77.93
2018-03-20T08:09:32.446Z,78.21
2018-03-20T08:10:32.592Z,78.21
2018-03-20T08:11:32.732Z,78.97
2018-03-20T08:12:32.877Z,79.06
2018-03-20T08:13:33.026Z,78.68
2018-03-20T08:14:33.179Z,79.16
2018-03-20T08:15:33.318Z,79.16
2018-03-20T08:16:33.463Z,78.78
2018-03-20T08:17:33.610Z,78.68
2018-03-20T08:18:33.759Z,78.12
2018-03-20T08:19:33.902Z,78.12
2018-03-20T08:20:34.050Z,78.40
2018-03-20T08:21:34.212Z,77.93
2018-03-20T08:22:34.344Z,78.40
2018-03-20T08:23:34.755Z,77.83
2018-03-20T08:24:34.636Z,78.12
2018-03-20T08:25:34.782Z,78.02
2018-03-20T08:26:34.929Z,78.40
2018-03-20T08:27:35.068Z,77.93
2018-03-20T08:28:35.216Z,78.31
2018-03-20T08:29:35.364Z,77.55
2018-03-20T08:30:35.508Z,77.93
2018-03-20T08:31:35.662Z,77.93
2018-03-20T08:32:35.813Z,77.26
2018-03-20T08:33:35.950Z,77.17
2018-03-20T08:34:36.096Z,76.70
2018-03-20T08:35:36.256Z,76.32
2018-03-20T08:36:36.394Z,76.42
2018-03-20T08:37:36.536Z,75.89
2018-03-20T08:38:36.693Z,76.14
2018-03-20T08:39:36.833Z,76.17
2018-03-20T08:40:36.974Z,75.98
2018-03-20T08:41:37.126Z,75.85
2018-03-20T08:42:37.272Z,75.95
2018-03-20T08:43:37.423Z,75.89
2018-03-20T08:44:37.568Z,76.04
2018-03-20T08:45:37.712Z,76.17
2018-03-20T08:46:37.858Z,76.55
2018-03-20T08:47:38.005Z,76.36
2018-03-20T08:48:38.153Z,76.36
2018-03-20T08:49:38.286Z,76.45
2018-03-20T08:51:38.580Z,76.26
2018-03-20T08:52:38.729Z,75.98
2018-03-20T08:53:38.875Z,76.07
2018-03-20T08:54:39.020Z,76.36
2018-03-20T08:55:39.167Z,76.07
2018-03-20T08:56:39.318Z,76.26
2018-03-20T08:57:39.462Z,76.55
2018-03-20T08:58:39.611Z,76.26
2018-03-20T08:59:39.763Z,76.26
2018-03-20T09:00:39.910Z,76.07
2018-03-20T09:01:40.066Z,76.26
2018-03-20T09:02:40.201Z,76.26
2018-03-20T09:03:40.347Z,76.36
2018-03-20T09:04:40.495Z,76.55
2018-03-20T09:05:40.708Z,76.64
2018-03-20T09:06:40.841Z,76.55
2018-03-20T09:07:40.988Z,75.98
2018-03-20T09:08:41.139Z,76.64
2018-03-20T09:09:41.294Z,76.26
2018-03-20T09:10:41.452Z,75.70
2018-03-20T09:11:41.581Z,75.98
2018-03-20T09:12:41.724Z,75.79
2018-03-20T09:13:41.874Z,75.42
2018-03-20T09:14:42.020Z,75.51
2018-03-20T09:15:42.165Z,75.13
2018-03-20T09:16:42.310Z,75.79
2018-03-20T09:17:42.467Z,75.04
2018-03-20T09:18:42.606Z,75.98
2018-03-20T09:19:42.760Z,75.89
2018-03-20T09:20:42.898Z,76.07
2018-03-20T09:21:43.054Z,75.42
2018-03-20T09:22:43.193Z,75.51
2018-03-20T09:23:43.342Z,75.89
2018-03-20T09:24:43.499Z,75.51
2018-03-20T09:25:43.632Z,75.60
2018-03-20T09:26:43.783Z,75.79
2018-03-20T09:27:43.927Z,75.60
2018-03-20T09:28:44.075Z,75.79
2018-03-20T09:29:44.224Z,75.51
2018-03-20T09:30:44.371Z,75.89
2018-03-20T09:31:44.527Z,75.89
2018-03-20T09:32:44.671Z,76.26
2018-03-20T09:33:44.823Z,76.26
2018-03-20T09:34:44.969Z,76.26
2018-03-20T09:35:45.111Z,76.55
2018-03-20T09:36:45.258Z,76.55
2018-03-20T09:37:45.404Z,76.55
2018-03-20T09:38:45.554Z,76.55
2018-03-20T09:39:45.705Z,77.21
2018-03-20T09:40:45.857Z,76.68
2018-03-20T09:41:46.000Z,76.59
2018-03-20T09:42:46.184Z,76.40
2018-03-20T09:43:46.349Z,76.59
2018-03-20T09:44:46.451Z,76.02
2018-03-20T09:45:46.595Z,76.12
2018-03-20T09:46:46.742Z,76.12
2018-03-20T09:47:46.887Z,76.93
2018-03-20T09:48:47.032Z,77.31
2018-03-20T09:49:47.199Z,78.34
2018-03-20T09:50:47.344Z,79.38
2018-03-20T09:51:47.477Z,79.35
2018-03-20T09:52:47.627Z,79.35
2018-03-20T09:53:47.769Z,80.48
2018-03-20T09:54:47.917Z,80.95
2018-03-20T09:55:48.067Z,80.52
2018-03-20T09:56:48.213Z,80.14
2018-03-20T09:57:48.368Z,80.14
2018-03-20T09:58:48.510Z,80.52
2018-03-20T09:59:48.657Z,81.51
2018-03-20T10:01:48.945Z,77.97
2018-03-20T10:02:49.086Z,77.21
2018-03-20T10:03:49.232Z,78.44
2018-03-20T10:04:49.383Z,79.00
2018-03-20T10:05:49.530Z,79.38
2018-03-20T10:06:49.676Z,79.57
2018-03-20T10:07:49.821Z,79.95
2018-03-20T10:08:49.970Z,79.76
2018-03-20T10:09:50.115Z,79.86
2018-03-20T10:10:50.271Z,79.95
2018-03-20T10:11:50.421Z,79.67
2018-03-20T10:12:50.563Z,80.52
2018-03-20T10:13:50.708Z,81.27
2018-03-20T10:14:50.854Z,81.74
2018-03-20T10:15:50.999Z,82.09
2018-03-20T10:16:51.158Z,82.41
2018-03-20T10:17:51.288Z,82.22
2018-03-20T10:18:51.434Z,82.03
2018-03-20T10:19:51.587Z,82.31
2018-03-20T10:20:51.735Z,82.22
2018-03-20T10:21:51.882Z,82.41
2018-03-20T10:22:52.021Z,82.41
2018-03-20T10:23:52.176Z,82.22
2018-03-20T10:24:52.313Z,82.12
2018-03-20T10:25:52.463Z,81.84
2018-03-20T10:26:52.624Z,81.56
2018-03-20T10:27:52.766Z,81.18
2018-03-20T10:28:52.915Z,81.18
2018-03-20T10:29:53.062Z,80.90
2018-03-20T10:30:53.205Z,80.99
2018-03-20T10:31:53.358Z,80.14
2018-03-20T10:32:53.501Z,80.24
2018-03-20T10:33:53.643Z,80.24
2018-03-20T10:34:53.789Z,80.99
2018-03-20T10:35:53.941Z,80.90
2018-03-20T10:36:54.084Z,80.84
2018-03-20T10:37:54.229Z,80.75
2018-03-20T10:38:54.376Z,79.80
2018-03-20T10:39:54.525Z,79.99
2018-03-20T10:40:54.674Z,80.46
2018-03-20T10:41:54.821Z,80.56
2018-03-20T10:42:54.966Z,80.65
2018-03-20T10:43:55.114Z,80.56
2018-03-20T10:44:55.259Z,80.27
2018-03-20T10:45:55.410Z,79.90
2018-03-20T10:46:55.555Z,79.90
2018-03-20T10:47:55.704Z,79.33
2018-03-20T10:48:55.904Z,80.27
2018-03-20T10:49:55.998Z,80.75
2018-03-20T10:50:56.149Z,80.84
2018-03-20T10:51:56.291Z,81.51
2018-03-20T10:52:56.689Z,80.75
2018-03-20T10:53:56.588Z,80.65
2018-03-20T10:54:56.732Z,81.13
2018-03-20T10:55:56.881Z,81.32
2018-03-20T10:56:57.030Z,81.41
2018-03-20T10:57:57.189Z,80.56
2018-03-20T10:58:57.338Z,81.41
2018-03-20T10:59:57.488Z,81.46
2018-03-20T11:00:57.624Z,81.88
2018-03-20T11:01:57.774Z,82.26
2018-03-20T11:02:57.938Z,82.12
2018-03-20T11:03:58.072Z,82.50
2018-03-20T11:05:58.359Z,81.88
2018-03-20T11:06:58.510Z,81.51
2018-03-20T11:08:58.795Z,82.45
2018-03-20T11:09:58.944Z,82.45
2018-03-20T11:10:59.088Z,82.35
2018-03-20T11:11:59.236Z,81.98
2018-03-20T11:12:59.386Z,82.07
2018-03-20T11:13:59.532Z,82.26
2018-03-20T11:14:59.683Z,81.88
2018-03-20T11:15:59.827Z,81.79
2018-03-20T11:16:59.976Z,81.41
2018-03-20T11:18:00.140Z,81.22
2018-03-20T11:19:00.280Z,81.60
2018-03-20T11:20:00.423Z,82.26
2018-03-20T11:21:00.572Z,82.35
2018-03-20T11:22:00.721Z,82.35
2018-03-20T11:23:00.875Z,82.73
2018-03-20T11:24:01.001Z,82.26
2018-03-20T11:25:01.152Z,82.35
2018-03-20T11:26:01.315Z,83.02
2018-03-20T11:27:01.463Z,82.54
2018-03-20T11:28:01.607Z,82.35
2018-03-20T11:29:01.755Z,82.54
2018-03-20T11:30:01.902Z,82.35
2018-03-20T11:31:02.052Z,81.79
2018-03-20T11:32:02.199Z,81.60
2018-03-20T11:33:02.344Z,81.60
2018-03-20T11:34:02.491Z,81.70
2018-03-20T11:35:02.663Z,82.17
2018-03-20T11:36:02.787Z,82.35
2018-03-20T11:37:02.931Z,83.02
2018-03-20T11:38:03.088Z,83.02
2018-03-20T11:39:03.224Z,82.64
2018-03-20T11:40:03.370Z,82.83
2018-03-20T11:41:03.518Z,82.73
2018-03-20T11:42:03.676Z,83.02
2018-03-20T11:43:03.819Z,82.92
2018-03-20T11:44:03.969Z,83.11
2018-03-20T11:45:04.125Z,84.16
2018-03-20T11:46:04.271Z,84.72
2018-03-20T11:47:04.425Z,83.87
2018-03-20T11:48:04.571Z,84.25
2018-03-20T11:49:04.728Z,84.63
2018-03-20T11:50:04.869Z,84.44
2018-03-20T11:51:05.015Z,84.53
2018-03-20T11:52:05.166Z,84.91
2018-03-20T11:53:05.311Z,84.44
2018-03-20T11:54:05.461Z,84.16
2018-03-20T11:55:05.620Z,83.59
2018-03-20T11:56:05.760Z,83.44
2018-03-20T11:57:05.903Z,83.25
2018-03-20T11:58:06.060Z,82.97
2018-03-20T11:59:06.199Z,82.50
2018-03-20T12:00:06.353Z,82.78
2018-03-20T12:01:06.492Z,82.68
2018-03-20T12:02:06.641Z,80.26
2018-03-20T12:03:06.796Z,80.07
2018-03-20T12:04:06.939Z,79.03
2018-03-20T12:05:07.086Z,78.94
2018-03-20T12:06:07.236Z,78.94
2018-03-20T12:07:07.380Z,78.85
2018-03-20T12:08:07.548Z,79.47
2018-03-20T12:09:07.693Z,79.75
2018-03-20T12:10:07.843Z,79.94
2018-03-20T12:11:08.001Z,80.79
2018-03-20T12:12:08.135Z,80.98
2018-03-20T12:13:08.312Z,81.40
2018-03-20T12:14:08.432Z,81.12
2018-03-20T12:15:08.588Z,80.55
2018-03-20T12:16:08.731Z,81.49
2018-03-20T12:17:08.879Z,80.17
2018-03-20T12:18:09.025Z,80.45
2018-03-20T12:19:09.172Z,79.88
2018-03-20T12:20:09.323Z,80.07
2018-03-20T12:21:09.476Z,80.17
2018-03-20T12:22:09.626Z,80.55
2018-03-20T12:23:09.772Z,80.93
2018-03-20T12:24:09.926Z,80.26
2018-03-20T12:25:10.073Z,79.79
2018-03-20T12:26:10.223Z,79.60
2018-03-20T12:27:10.371Z,79.88
2018-03-20T12:28:10.514Z,79.88
2018-03-20T12:29:10.671Z,79.88
2018-03-20T12:30:10.820Z,79.79
2018-03-20T12:31:10.958Z,80.45
2018-03-20T12:32:11.108Z,80.77
2018-03-20T12:33:11.255Z,80.58
2018-03-20T12:34:11.401Z,80.87
2018-03-20T12:35:11.550Z,80.87
2018-03-20T12:36:11.700Z,80.96
2018-03-20T12:37:11.865Z,80.58
2018-03-20T12:38:11.994Z,81.25
2018-03-20T12:39:12.141Z,80.68
2018-03-20T12:40:12.296Z,81.34
2018-03-20T12:41:12.453Z,82.29
2018-03-20T12:42:12.595Z,82.57
2018-03-20T12:43:12.742Z,83.67
2018-03-20T12:44:12.892Z,84.05
2018-03-20T12:45:13.048Z,84.81
2018-03-20T12:46:13.198Z,85.04
2018-03-20T12:47:13.347Z,85.70
2018-03-20T12:48:13.499Z,85.04
2018-03-20T12:49:13.648Z,85.51
2018-03-20T12:50:13.795Z,85.89
2018-03-20T12:51:13.944Z,86.18
2018-03-20T12:52:14.097Z,85.61
2018-03-20T12:53:14.248Z,85.42
2018-03-20T12:54:14.400Z,85.23
2018-03-20T12:55:14.553Z,85.04
2018-03-20T12:56:14.699Z,84.85
2018-03-20T12:57:14.852Z,85.32
2018-03-20T12:58:15.001Z,85.51
2018-03-20T12:59:15.136Z,85.23
2018-03-20T13:00:15.288Z,84.85
2018-03-20T13:01:15.436Z,84.66
2018-03-20T13:02:15.583Z,84.94
2018-03-20T13:03:15.739Z,84.85
2018-03-20T13:04:15.884Z,84.19
2018-03-20T13:05:16.033Z,83.39
2018-03-20T13:06:16.178Z,82.34